Glen Saint Mary, Florida
Current Conditions -  °F | °C
As of 12:50 PM on Friday 24 Oct 2014 (Local Time) from KVQQ Reporting Station
Clear Clear  
Wind Chill: 72°   Ceiling: Unl
Heat Index: 72°   Visibility: 10mi
Dew Point: 50°   Wind: 6mph
Humidity: 46%   Direction: 360°N
Pressure: 30.04"   Gusts: NA
Location:  30.28°N, 82.16°W
Report Text: KVQQ 241650Z 36005KT 10SM CLR 22/10 A3004
Loading
Personal Weather Stations






























Interactive Weather Map
Tropical Storm Tracking
New forecast layout! Learn more

10-Day Weather Forecast

Advertisements
Track Severe Weather on mobile